Terminal Aerodrome Forecast
Issued by NWS Sterling, VA

Home | Current Version | Previous Version | Text Only | Print | Product List | Glossary On
Versions: 1 2 3 4 5 6 7 8 9 10 11 12 13 14 15 16 17 18 19 20 21 22 23 24 25
000
FTUS41 KLWX 311700
TAFBWI
TAF
KBWI 311720Z 3118/0124 07004KT P6SM BKN050
     FM010800 01006KT P6SM OVC050
     FM011200 35009KT P6SM -SHRA OVC025
     FM011500 36012KT P6SM -SHRA OVC015
     FM011800 35014KT 3SM -SHRA BR OVC015
     FM012100 35014KT 6SM -SHRA OVC015=

USA.gov is the U.S. government's official web portal to all federal, state and local government web resources and services.